US Aviators Van Nuys Flight School Los Angeles Pilot school at Van Nuys Simulator Flight Training Profesional Pilot Instruction Learn to Fly

U.S. Aviators

Learn to fly here! (818) 779-2105

Weather at Van Nuys Airport

Observed:Thu Sep 3, 00:51 PDT
Age:57 min ago
Wind:SE at 2 mph
Visibility:10 miles
Clouds:Overcast
Temperature:66°F (19°C)
Dewpoint:59°F (15°C)
Humidity:78%
Barometer:1014 hPa (29.94 in Hg)

METAR

KVNY 030751Z 13004KT 10SM OVC016 19/15 A2994 RMK AO2 SLP129 T01940150 402830189